createdAt,value
2019-05-16T08:09:30.588Z,2.33
2019-05-16T08:12:01.607Z,2.60
2019-05-16T08:14:30.366Z,2.33
2019-05-16T08:17:01.149Z,2.33
2019-05-16T08:19:30.574Z,2.30
2019-05-16T08:22:01.231Z,2.33
2019-05-16T08:24:30.948Z,2.25
2019-05-16T08:27:01.183Z,2.50
2019-05-16T08:29:31.728Z,2.87
2019-05-16T08:32:02.240Z,2.37
2019-05-16T08:34:32.202Z,2.35
2019-05-16T08:37:01.126Z,1.90
2019-05-16T08:39:31.419Z,2.33
2019-05-16T08:42:07.814Z,2.33
2019-05-16T08:44:32.373Z,2.05
2019-05-16T08:47:06.295Z,2.20
2019-05-16T08:49:30.889Z,2.40
2019-05-16T08:52:01.498Z,2.27
2019-05-16T08:54:31.834Z,2.10
2019-05-16T08:57:17.144Z,2.10
2019-05-16T08:59:33.847Z,1.85
2019-05-16T09:02:03.356Z,2.10
2019-05-16T09:04:33.570Z,1.90
2019-05-16T09:07:01.927Z,2.30
2019-05-16T09:10:34.258Z,2.00
2019-05-16T09:11:59.879Z,1.82
2019-05-16T09:14:31.912Z,1.72
2019-05-16T09:16:58.295Z,2.10
2019-05-16T09:19:27.528Z,2.00
2019-05-16T09:21:58.067Z,2.20
2019-05-16T09:24:27.202Z,1.85
2019-05-16T09:26:57.898Z,1.85
2019-05-16T09:29:27.294Z,2.10
2019-05-16T09:32:09.048Z,1.95
2019-05-16T09:34:28.396Z,1.90
2019-05-16T09:37:00.465Z,1.85
2019-05-16T09:39:27.728Z,2.02
2019-05-16T09:41:58.679Z,1.67
2019-05-16T09:44:27.247Z,1.70
2019-05-16T09:46:56.980Z,2.35
2019-05-16T09:49:26.212Z,1.72
2019-05-16T09:51:56.731Z,2.10
2019-05-16T09:54:27.173Z,1.92
2019-05-16T09:56:56.991Z,1.90
2019-05-16T09:59:26.377Z,2.10
2019-05-16T10:01:57.107Z,1.90
2019-05-16T10:04:26.701Z,2.00
2019-05-16T10:06:57.018Z,1.90
2019-05-16T10:09:40.283Z,2.30
2019-05-16T10:12:10.411Z,2.10
2019-05-16T10:14:26.866Z,1.85
2019-05-16T10:16:57.729Z,1.77
2019-05-16T10:19:27.568Z,2.25
2019-05-16T10:22:00.027Z,1.90
2019-05-16T10:24:26.848Z,1.72
2019-05-16T10:26:57.180Z,2.08
2019-05-16T10:29:27.350Z,2.27
2019-05-16T10:31:56.870Z,2.12
2019-05-16T10:34:26.598Z,1.72
2019-05-16T10:36:57.559Z,1.72
2019-05-16T10:39:26.754Z,1.85
2019-05-16T10:41:57.400Z,1.77
2019-05-16T10:44:28.088Z,2.00
2019-05-16T10:46:55.463Z,1.92
2019-05-16T10:49:34.295Z,2.30
2019-05-16T10:51:53.794Z,1.75
2019-05-16T10:54:22.196Z,1.72
2019-05-16T10:56:50.838Z,1.87
2019-05-16T10:59:54.547Z,2.20
2019-05-16T11:01:49.585Z,2.02
2019-05-16T11:04:28.469Z,1.70
2019-05-16T11:06:48.110Z,1.82
2019-05-16T11:09:17.352Z,1.60
2019-05-16T11:11:47.616Z,1.70
2019-05-16T11:14:17.373Z,1.98
2019-05-16T11:16:47.395Z,1.90
2019-05-16T11:19:21.264Z,2.02
2019-05-16T11:21:46.879Z,1.52
2019-05-16T11:24:15.459Z,2.00
2019-05-16T11:26:43.811Z,1.70
2019-05-16T11:29:12.111Z,1.50
2019-05-16T11:31:40.433Z,1.70
2019-05-16T11:34:08.848Z,1.72
2019-05-16T11:36:37.674Z,1.70
2019-05-16T11:39:08.695Z,1.90
2019-05-16T11:41:37.276Z,1.87
2019-05-16T11:44:06.691Z,1.85
2019-05-16T11:46:37.427Z,2.05
2019-05-16T11:49:05.406Z,1.70
2019-05-16T11:51:33.745Z,2.05
2019-05-16T11:54:02.283Z,1.75
2019-05-16T11:56:30.606Z,1.87
2019-05-16T11:58:58.912Z,2.50
2019-05-16T12:01:27.698Z,1.85
2019-05-16T12:03:57.514Z,11.05
2019-05-16T12:06:26.877Z,46.20
2019-05-16T12:08:55.383Z,181.20
2019-05-16T12:11:23.712Z,302.62
2019-05-16T12:13:52.512Z,375.22
2019-05-16T12:16:20.861Z,390.77
2019-05-16T12:18:49.175Z,404.50
2019-05-16T12:21:17.497Z,251.35
2019-05-16T12:23:47.335Z,157.18
2019-05-16T12:26:17.535Z,164.18
2019-05-16T12:28:45.820Z,136.37
2019-05-16T12:31:17.141Z,158.35
2019-05-16T12:33:44.286Z,83.72
2019-05-16T12:36:12.603Z,85.92
2019-05-16T12:38:41.005Z,89.22
2019-05-16T12:41:09.320Z,215.70
2019-05-16T12:43:48.900Z,191.62
2019-05-16T12:46:08.338Z,178.78
2019-05-16T12:48:37.519Z,159.45
2019-05-16T12:51:08.300Z,142.57
2019-05-16T12:53:36.717Z,133.57
2019-05-16T12:56:05.417Z,121.60
2019-05-16T12:58:42.169Z,116.42
2019-05-16T13:01:04.016Z,110.85
2019-05-16T13:03:32.580Z,108.20
2019-05-16T13:06:00.939Z,104.25
2019-05-16T13:08:29.278Z,101.42
2019-05-16T13:10:57.945Z,100.80
2019-05-16T13:13:27.866Z,97.37
2019-05-16T13:15:56.387Z,94.45
2019-05-16T13:18:27.314Z,94.22
2019-05-16T13:20:57.138Z,89.28
2019-05-16T13:23:26.931Z,89.28
2019-05-16T13:25:57.326Z,88.40
2019-05-16T13:28:25.058Z,87.70
2019-05-16T13:30:53.431Z,86.65
2019-05-16T13:33:21.753Z,83.50
2019-05-16T13:35:50.227Z,86.05
2019-05-16T13:38:18.535Z,83.25
2019-05-16T13:40:46.945Z,82.60
2019-05-16T13:43:17.492Z,80.00
2019-05-16T13:45:47.229Z,80.17
2019-05-16T13:48:17.246Z,79.22
2019-05-16T13:50:47.403Z,79.45
2019-05-16T13:53:16.374Z,78.65
2019-05-16T13:55:47.802Z,77.32
2019-05-16T13:58:17.895Z,76.60
2019-05-16T14:00:47.998Z,76.37
2019-05-16T14:03:17.904Z,74.47
2019-05-16T14:05:47.843Z,76.70
2019-05-16T14:08:17.044Z,75.22
2019-05-16T14:10:48.559Z,76.07
2019-05-16T14:13:16.540Z,76.17
2019-05-16T14:15:47.274Z,75.28
2019-05-16T14:18:17.472Z,71.37
2019-05-16T14:20:46.573Z,72.82
2019-05-16T14:23:17.703Z,53.65
2019-05-16T14:25:48.069Z,40.33
2019-05-16T14:28:17.341Z,30.45
2019-05-16T14:30:46.816Z,45.15
2019-05-16T14:33:17.207Z,53.68
2019-05-16T14:35:47.292Z,49.85
2019-05-16T14:38:17.572Z,47.08
2019-05-16T14:40:50.041Z,48.08
2019-05-16T14:43:17.128Z,49.50
2019-05-16T14:45:46.656Z,48.00
2019-05-16T14:48:18.162Z,48.70
2019-05-16T14:50:47.054Z,47.80
2019-05-16T14:53:17.936Z,47.25
2019-05-16T14:55:47.545Z,47.65
2019-05-16T14:58:15.818Z,48.68
2019-05-16T15:00:48.463Z,48.00
2019-05-16T15:03:14.434Z,45.98
2019-05-16T15:05:43.230Z,48.05
2019-05-16T15:08:11.733Z,46.05
2019-05-16T15:10:40.042Z,46.85
2019-05-16T15:13:08.528Z,47.03
2019-05-16T15:15:37.653Z,46.58
2019-05-16T15:18:08.189Z,45.65
2019-05-16T15:20:36.629Z,44.58
2019-05-16T15:23:07.622Z,44.15
2019-05-16T15:25:37.390Z,44.88
2019-05-16T15:28:07.306Z,44.42
2019-05-16T15:30:39.091Z,42.58
2019-05-16T15:33:08.512Z,42.38
2019-05-16T15:35:38.073Z,42.65
2019-05-16T15:38:07.813Z,42.98
2019-05-16T15:40:37.929Z,45.17
2019-05-16T15:43:07.933Z,41.58
2019-05-16T15:45:43.368Z,42.93
2019-05-16T15:48:12.200Z,41.77
2019-05-16T15:50:40.945Z,40.45
2019-05-16T15:53:09.423Z,42.67
2019-05-16T15:55:38.080Z,41.42
2019-05-16T15:58:07.397Z,43.08
2019-05-16T16:00:39.819Z,42.55
2019-05-16T16:03:08.269Z,41.98
2019-05-16T16:05:37.555Z,42.67
2019-05-16T16:08:06.947Z,41.58
2019-05-16T16:10:37.946Z,40.70
2019-05-16T16:13:06.869Z,41.20
2019-05-16T16:15:49.775Z,43.38
2019-05-16T16:18:08.969Z,41.35
2019-05-16T16:20:37.052Z,42.62
2019-05-16T16:23:06.816Z,40.60
2019-05-16T16:25:35.357Z,39.45
2019-05-16T16:28:07.137Z,40.63
2019-05-16T16:30:37.083Z,40.60
2019-05-16T16:33:19.058Z,39.50
2019-05-16T16:35:37.850Z,38.25
2019-05-16T16:38:07.040Z,39.50
2019-05-16T16:40:36.831Z,37.65
2019-05-16T16:43:07.987Z,37.35
2019-05-16T16:45:35.123Z,37.15
2019-05-16T16:48:03.624Z,35.90
2019-05-16T16:50:31.988Z,37.42
2019-05-16T16:53:00.287Z,37.58
2019-05-16T16:55:28.704Z,37.63
2019-05-16T16:57:59.607Z,36.98
2019-05-16T17:00:28.025Z,36.45
2019-05-16T17:03:05.674Z,37.88
2019-05-16T17:05:29.454Z,37.10
2019-05-16T17:07:57.768Z,36.08
2019-05-16T17:10:27.507Z,36.28
2019-05-16T17:12:57.631Z,35.17
2019-05-16T17:15:27.194Z,37.13
2019-05-16T17:17:57.422Z,34.78
2019-05-16T17:20:25.991Z,35.00
2019-05-16T17:22:54.298Z,35.17
2019-05-16T17:25:22.718Z,34.55
2019-05-16T17:27:51.023Z,34.73
2019-05-16T17:30:20.704Z,35.20
2019-05-16T17:32:49.269Z,33.35
2019-05-16T17:35:19.012Z,34.35
2019-05-16T17:37:48.591Z,34.88
2019-05-16T17:40:17.893Z,35.80
2019-05-16T17:42:47.724Z,32.45
2019-05-16T17:45:18.410Z,34.90
2019-05-16T17:47:46.906Z,35.30
2019-05-16T17:50:17.561Z,34.80
2019-05-16T17:52:47.605Z,34.45
2019-05-16T17:55:17.442Z,33.53
2019-05-16T17:57:46.257Z,21.85
2019-05-16T18:00:24.867Z,13.50
2019-05-16T18:02:46.561Z,9.13
2019-05-16T18:05:17.019Z,7.42
2019-05-16T18:07:47.456Z,6.83
2019-05-16T18:10:17.702Z,5.80
2019-05-16T18:12:48.062Z,6.70
2019-05-16T18:15:20.463Z,7.58
2019-05-16T18:17:48.889Z,6.87
2019-05-16T18:20:18.400Z,7.60
2019-05-16T18:22:47.285Z,8.05
2019-05-16T18:25:16.352Z,8.70
2019-05-16T18:27:44.779Z,8.95
2019-05-16T18:30:13.318Z,8.53
2019-05-16T18:32:41.713Z,8.40
2019-05-16T18:35:10.374Z,8.83
2019-05-16T18:37:38.698Z,9.55
2019-05-16T18:40:08.152Z,8.50
2019-05-16T18:42:37.048Z,8.68
2019-05-16T18:45:08.772Z,9.15
2019-05-16T18:47:37.939Z,8.60
2019-05-16T18:50:10.368Z,8.03
2019-05-16T18:52:38.758Z,9.13
2019-05-16T18:55:08.539Z,8.00
2019-05-16T18:57:37.791Z,8.98
2019-05-16T19:00:10.575Z,7.87
2019-05-16T19:02:37.516Z,8.15
2019-05-16T19:05:07.165Z,8.38
2019-05-16T19:07:36.914Z,7.83
2019-05-16T19:10:07.346Z,8.50
2019-05-16T19:12:37.243Z,7.80
2019-05-16T19:15:08.888Z,8.25
2019-05-16T19:17:37.496Z,8.38
2019-05-16T19:20:06.802Z,8.08
2019-05-16T19:22:37.177Z,8.08
2019-05-16T19:25:07.084Z,7.85
2019-05-16T19:27:37.093Z,8.43
2019-05-16T19:30:07.286Z,8.10
2019-05-16T19:32:39.074Z,7.37
2019-05-16T19:35:07.377Z,8.15
2019-05-16T19:37:40.492Z,7.97
2019-05-16T19:40:06.568Z,7.65
2019-05-16T19:42:36.808Z,7.90
2019-05-16T19:45:09.017Z,7.97
2019-05-16T19:47:41.063Z,7.80
2019-05-16T19:50:07.732Z,7.67
2019-05-16T19:52:36.703Z,7.90
2019-05-16T19:55:09.369Z,7.42
2019-05-16T19:57:37.746Z,7.12
2019-05-16T20:00:07.491Z,7.00
2019-05-16T20:02:36.839Z,7.15
2019-05-16T20:05:06.631Z,7.45
2019-05-16T20:07:37.267Z,7.22
2019-05-16T20:10:09.397Z,7.22
2019-05-16T20:12:37.209Z,7.80
2019-05-16T20:17:52.161Z,7.58
2019-05-16T20:20:11.635Z,6.97
2019-05-16T20:22:40.114Z,6.78
2019-05-16T20:25:08.754Z,6.92
2019-05-16T20:27:37.175Z,7.20
2019-05-16T20:30:07.037Z,6.70
2019-05-16T20:32:37.174Z,6.90
2019-05-16T20:35:08.783Z,6.70
2019-05-16T20:37:36.827Z,7.37
2019-05-16T20:40:09.214Z,7.53
2019-05-16T20:42:36.942Z,7.28
2019-05-16T20:45:08.097Z,7.10
2019-05-16T20:47:36.436Z,6.87
2019-05-16T20:50:07.620Z,7.37
2019-05-16T20:52:37.801Z,6.92
2019-05-16T20:55:07.381Z,7.22
2019-05-16T20:57:37.813Z,7.40
2019-05-16T21:00:07.202Z,6.95
2019-05-16T21:02:37.930Z,7.53
2019-05-16T21:05:06.782Z,7.42
2019-05-16T21:07:37.594Z,7.22
2019-05-16T21:10:08.033Z,7.15
2019-05-16T21:12:40.060Z,7.10
2019-05-16T21:15:07.395Z,6.92
2019-05-16T21:17:35.855Z,7.05
2019-05-16T21:20:07.214Z,6.87
2019-05-16T21:22:37.131Z,6.58
2019-05-16T21:25:06.351Z,7.05
2019-05-16T21:27:37.617Z,6.45
2019-05-16T21:30:07.518Z,6.95
2019-05-16T21:32:36.650Z,7.30
2019-05-16T21:35:07.246Z,6.37
2019-05-16T21:37:37.411Z,6.95
2019-05-16T21:40:08.183Z,6.17
2019-05-16T21:42:36.645Z,7.10
2019-05-16T21:45:07.153Z,6.75
2019-05-16T21:47:36.917Z,6.78
2019-05-16T21:50:07.825Z,6.62
2019-05-16T21:52:36.523Z,7.20
2019-05-16T21:55:07.252Z,6.35
2019-05-16T21:57:37.708Z,6.83
2019-05-16T22:00:13.388Z,7.17
2019-05-16T22:02:41.757Z,6.40
2019-05-16T22:05:10.323Z,6.80
2019-05-16T22:07:38.683Z,6.72
2019-05-16T22:10:07.447Z,6.35
2019-05-16T22:12:38.203Z,5.85
2019-05-16T22:15:06.779Z,6.22
2019-05-16T22:17:36.640Z,6.25
2019-05-16T22:20:07.144Z,5.92
2019-05-16T22:22:38.607Z,6.08
2019-05-16T22:25:07.793Z,6.08
2019-05-16T22:27:36.481Z,6.10
2019-05-16T22:30:08.149Z,6.03
2019-05-16T22:32:36.445Z,6.42
2019-05-16T22:35:08.050Z,6.03
2019-05-16T22:37:48.856Z,6.20
2019-05-16T22:40:06.925Z,6.40
2019-05-16T22:42:37.286Z,6.30
2019-05-16T22:45:10.699Z,6.30
2019-05-16T22:47:39.039Z,5.62
2019-05-16T22:50:07.990Z,6.42
2019-05-16T22:52:36.854Z,5.87
2019-05-16T22:55:07.495Z,6.33
2019-05-16T22:57:35.840Z,5.67
2019-05-16T23:00:10.939Z,5.60
2019-05-16T23:02:39.317Z,6.05
2019-05-16T23:05:07.692Z,6.15
2019-05-16T23:07:36.733Z,5.70
2019-05-16T23:10:07.378Z,6.20
2019-05-16T23:12:37.172Z,5.80
2019-05-16T23:15:07.007Z,5.95
2019-05-16T23:17:37.533Z,5.70
2019-05-16T23:20:06.493Z,5.45
2019-05-16T23:22:36.757Z,5.95
2019-05-16T23:25:06.725Z,5.83
2019-05-16T23:27:36.844Z,5.80
2019-05-16T23:30:09.052Z,5.92
2019-05-16T23:32:37.398Z,6.03
2019-05-16T23:35:07.292Z,5.70
2019-05-16T23:37:37.017Z,5.78
2019-05-16T23:40:09.679Z,5.95
2019-05-16T23:42:37.986Z,5.33
2019-05-16T23:45:09.240Z,5.97
2019-05-16T23:47:37.714Z,5.25
2019-05-16T23:50:07.928Z,6.12
2019-05-16T23:52:36.927Z,5.95
2019-05-16T23:55:08.326Z,5.55
2019-05-16T23:57:37.515Z,5.00
